Portada
METAR-TAF:

METAR-TAF

Aeropuertos :

Aeropuerto de Melilla

Melilla, España

latitud: 35-17N, longitud: 002-57W, altitud: 47 m

Observación

El informe se hizo hace 33 minutos, a las 00:30 UTC
Viento 9 kt del norte-noreste, variando entre norte y este-noreste
Temperatura 15°C
Humedad 88%
Presión 1020 hPa
Visibilidad 10 km o más
Nubes dispersas a una altura de 1400 ft
Cielo nuboso a una altura de 4800 ft

METAR: GEML 020030Z AUTO 03009KT 350V070 9999 SCT014 BKN048 15/13 Q1020

Hora: 02:03 (01:03 UTC)

Pronóstico

El informe se hizo hace 5 horas y 3 minutos, a las 20:00 UTC
Pronóstico válido del 01 a las 21 UTC al 02 a las 21 UTC
Viento 9 kt del noreste
Visibilidad 10 km o más
Nubes dispersas a una altura de 1000 ft

TAF: GEML 012000Z 0121/0221 04009KT 9999 SCT010 TX16/0217Z TN12/0221Z

Observaciones y pronósticos meteorológicos de más de 4000 aeropuertos (mensajes METAR y TAF).

Los puntos amarillos y rojos representan las estaciones disponibles.

Ponga el ratón en el punto deseado para ver el nombre de la estación.

Haga clic para ver las observaciones y los pronósticos meteorológicos.

Para cambiar el mapa : haga clic en los botones verdes con una cruz de color negro para hacer un zoom, en el botón verde con un guión para alejar o en las flechas verdes para mapas adyacentes.


METAR-TAF: